createdAt,value
2019-01-26T00:00:16.733Z,28.95
2019-01-26T00:02:46.137Z,29.40
2019-01-26T00:05:15.527Z,30.17
2019-01-26T00:07:44.893Z,28.30
2019-01-26T00:10:14.246Z,30.85
2019-01-26T00:12:43.640Z,32.30
2019-01-26T00:15:13.565Z,29.82
2019-01-26T00:17:42.913Z,32.20
2019-01-26T00:20:12.349Z,29.12
2019-01-26T00:22:41.720Z,30.90
2019-01-26T00:25:11.102Z,32.95
2019-01-26T00:27:40.457Z,31.68
2019-01-26T00:30:11.481Z,30.65
2019-01-26T00:32:40.915Z,29.92
2019-01-26T00:35:10.593Z,32.67
2019-01-26T00:37:40.046Z,30.08
2019-01-26T00:40:09.758Z,31.35
2019-01-26T00:42:39.168Z,30.35
2019-01-26T00:45:08.832Z,29.57
2019-01-26T00:47:38.241Z,34.13
2019-01-26T00:50:08.177Z,34.10
2019-01-26T00:52:37.562Z,31.00
2019-01-26T00:55:07.521Z,33.15
2019-01-26T00:57:36.880Z,35.68
2019-01-26T01:00:08.729Z,26.45
2019-01-26T01:02:38.116Z,31.75
2019-01-26T01:05:08.170Z,33.35
2019-01-26T01:07:37.554Z,34.27
2019-01-26T01:10:07.695Z,31.42
2019-01-26T01:12:37.068Z,36.53
2019-01-26T01:15:06.807Z,34.27
2019-01-26T01:17:36.328Z,30.65
2019-01-26T01:20:07.142Z,32.78
2019-01-26T01:22:36.506Z,34.45
2019-01-26T01:25:06.166Z,31.80
2019-01-26T01:27:35.522Z,31.05
2019-01-26T01:30:06.368Z,33.73
2019-01-26T01:32:35.751Z,30.88
2019-01-26T01:35:05.519Z,30.65
2019-01-26T01:37:34.857Z,32.35
2019-01-26T01:40:04.707Z,32.17
2019-01-26T01:42:34.073Z,31.80
2019-01-26T01:45:03.882Z,32.88
2019-01-26T01:47:33.261Z,35.68
2019-01-26T01:50:02.620Z,31.27
2019-01-26T01:52:32.053Z,32.80
2019-01-26T01:55:01.423Z,33.92
2019-01-26T01:57:30.752Z,31.68
2019-01-26T02:00:00.178Z,29.27
2019-01-26T02:02:29.699Z,29.45
2019-01-26T02:04:59.072Z,32.85
2019-01-26T02:07:28.424Z,31.30
2019-01-26T02:09:57.916Z,30.85
2019-01-26T02:12:27.281Z,31.90
2019-01-26T02:14:56.685Z,29.12
2019-01-26T02:17:26.044Z,33.67
2019-01-26T02:19:55.397Z,26.57
2019-01-26T02:22:24.777Z,27.55
2019-01-26T02:24:54.148Z,28.70
2019-01-26T02:27:23.893Z,27.48
2019-01-26T02:29:53.268Z,25.85
2019-01-26T02:32:22.675Z,27.85
2019-01-26T02:34:52.177Z,28.73
2019-01-26T02:37:21.563Z,29.40
2019-01-26T02:39:51.096Z,29.82
2019-01-26T02:42:20.452Z,28.77
2019-01-26T02:44:49.821Z,29.42
2019-01-26T02:47:19.285Z,31.10
2019-01-26T02:49:48.651Z,28.27
2019-01-26T02:52:18.004Z,29.00
2019-01-26T02:54:47.380Z,30.97
2019-01-26T02:57:16.754Z,29.02
2019-01-26T02:59:46.160Z,30.80
2019-01-26T03:02:15.543Z,29.35
2019-01-26T03:04:44.905Z,29.32
2019-01-26T03:07:14.361Z,27.32
2019-01-26T03:09:43.721Z,30.43
2019-01-26T03:12:13.100Z,30.17
2019-01-26T03:14:42.481Z,31.57
2019-01-26T03:17:11.834Z,31.12
2019-01-26T03:19:41.201Z,27.60
2019-01-26T03:22:10.545Z,28.67
2019-01-26T03:24:39.902Z,27.80
2019-01-26T03:27:09.253Z,31.80
2019-01-26T03:29:38.629Z,28.85
2019-01-26T03:32:07.986Z,29.50
2019-01-26T03:34:37.357Z,29.77
2019-01-26T03:37:06.716Z,29.55
2019-01-26T03:39:36.070Z,30.17
2019-01-26T03:42:05.429Z,29.10
2019-01-26T03:44:34.844Z,29.55
2019-01-26T03:47:04.192Z,29.50
2019-01-26T03:49:33.589Z,29.15
2019-01-26T03:52:02.922Z,34.92
2019-01-26T03:54:32.289Z,31.80
2019-01-26T03:57:01.834Z,29.07
2019-01-26T03:59:31.235Z,31.45
2019-01-26T04:02:00.579Z,30.90
2019-01-26T04:04:29.962Z,28.65
2019-01-26T04:06:59.293Z,30.62
2019-01-26T04:09:28.665Z,28.57
2019-01-26T04:11:58.025Z,27.85
2019-01-26T04:14:27.441Z,32.60
2019-01-26T04:16:56.778Z,31.27
2019-01-26T04:19:26.150Z,28.23
2019-01-26T04:21:56.028Z,31.90
2019-01-26T04:24:25.393Z,33.20
2019-01-26T04:26:54.770Z,29.37
2019-01-26T04:29:24.125Z,33.13
2019-01-26T04:31:53.506Z,31.27
2019-01-26T04:34:23.785Z,29.45
2019-01-26T04:36:53.164Z,30.37
2019-01-26T04:39:22.535Z,30.88
2019-01-26T04:41:52.209Z,31.68
2019-01-26T04:44:21.570Z,30.85
2019-01-26T04:46:50.958Z,28.47
2019-01-26T04:49:20.313Z,30.62
2019-01-26T04:51:49.692Z,30.17
2019-01-26T04:54:19.085Z,29.18
2019-01-26T04:56:48.477Z,28.62
2019-01-26T04:59:17.864Z,35.17
2019-01-26T05:01:47.250Z,28.95
2019-01-26T05:04:16.617Z,30.62
2019-01-26T05:06:45.969Z,31.48
2019-01-26T05:09:15.333Z,29.02
2019-01-26T05:11:44.692Z,29.65
2019-01-26T05:14:14.073Z,32.17
2019-01-26T05:16:43.421Z,31.20
2019-01-26T05:19:12.902Z,33.65
2019-01-26T05:21:42.264Z,32.90
2019-01-26T05:24:11.622Z,27.30
2019-01-26T05:26:41.006Z,32.83
2019-01-26T05:29:10.358Z,29.57
2019-01-26T05:31:39.737Z,31.12
2019-01-26T05:34:09.093Z,28.87
2019-01-26T05:36:38.458Z,27.52
2019-01-26T05:39:08.450Z,29.45
2019-01-26T05:41:37.826Z,28.83
2019-01-26T05:44:07.166Z,30.35
2019-01-26T05:46:36.565Z,29.63
2019-01-26T05:49:05.908Z,28.52
2019-01-26T05:51:35.279Z,27.73
2019-01-26T05:54:04.725Z,29.95
2019-01-26T05:56:34.092Z,29.82
2019-01-26T05:59:03.456Z,27.80
2019-01-26T06:01:32.831Z,27.65
2019-01-26T06:04:02.189Z,26.55
2019-01-26T06:06:31.550Z,28.17
2019-01-26T06:09:00.910Z,27.87
2019-01-26T06:11:30.285Z,29.45
2019-01-26T06:13:59.646Z,29.02
2019-01-26T06:16:29.009Z,30.15
2019-01-26T06:18:58.353Z,26.35
2019-01-26T06:21:27.777Z,27.07
2019-01-26T06:23:57.149Z,29.63
2019-01-26T06:26:26.565Z,27.80
2019-01-26T06:28:55.917Z,27.98
2019-01-26T06:31:25.302Z,27.73
2019-01-26T06:33:54.665Z,29.48
2019-01-26T06:36:24.047Z,30.02
2019-01-26T06:38:53.576Z,28.07
2019-01-26T06:41:22.977Z,26.35
2019-01-26T06:43:52.330Z,29.23
2019-01-26T06:46:21.706Z,25.88
2019-01-26T06:48:54.248Z,26.65
2019-01-26T06:51:23.617Z,26.20
2019-01-26T06:53:52.976Z,25.90
2019-01-26T06:56:22.354Z,28.75
2019-01-26T06:58:51.713Z,26.68
2019-01-26T07:01:21.128Z,29.55
2019-01-26T07:03:50.480Z,27.60
2019-01-26T07:06:27.769Z,26.85
2019-01-26T07:08:57.124Z,26.90
2019-01-26T07:11:26.516Z,26.90
2019-01-26T07:13:55.965Z,26.40
2019-01-26T07:16:26.093Z,26.12
2019-01-26T07:18:55.517Z,28.67
2019-01-26T07:21:24.902Z,24.05
2019-01-26T07:23:54.258Z,28.00
2019-01-26T07:26:23.648Z,24.15
2019-01-26T07:28:52.997Z,27.15
2019-01-26T07:31:22.355Z,25.35
2019-01-26T07:33:51.728Z,24.75
2019-01-26T07:36:21.077Z,23.00
2019-01-26T07:38:50.479Z,23.62
2019-01-26T07:41:19.837Z,23.70
2019-01-26T07:43:49.236Z,24.87
2019-01-26T07:46:18.597Z,24.12
2019-01-26T07:48:47.978Z,20.77
2019-01-26T07:51:17.321Z,22.98
2019-01-26T07:53:47.333Z,22.75
2019-01-26T07:56:16.767Z,22.73
2019-01-26T07:58:46.121Z,23.77
2019-01-26T08:01:15.530Z,23.38
2019-01-26T08:03:44.884Z,21.87
2019-01-26T08:06:14.244Z,23.35
2019-01-26T08:08:43.612Z,22.30
2019-01-26T08:11:13.011Z,19.70
2019-01-26T08:13:42.367Z,21.82
2019-01-26T08:16:11.738Z,24.55
2019-01-26T08:18:41.093Z,22.75
2019-01-26T08:21:10.494Z,21.05
2019-01-26T08:23:39.846Z,22.48
2019-01-26T08:26:09.225Z,19.52
2019-01-26T08:28:38.561Z,22.27
2019-01-26T08:31:07.938Z,22.67
2019-01-26T08:33:37.322Z,24.20
2019-01-26T08:36:06.818Z,22.48
2019-01-26T08:38:36.166Z,19.17
2019-01-26T08:41:05.537Z,22.73
2019-01-26T08:43:34.889Z,21.30
2019-01-26T08:46:04.270Z,24.95
2019-01-26T08:48:33.654Z,19.17
2019-01-26T08:51:03.025Z,21.75
2019-01-26T08:53:32.454Z,21.97
2019-01-26T08:56:01.833Z,21.68
2019-01-26T08:58:31.189Z,17.85
2019-01-26T09:01:00.594Z,20.95
2019-01-26T09:03:47.256Z,20.82
2019-01-26T09:06:23.177Z,21.40
2019-01-26T09:08:52.536Z,22.80
2019-01-26T09:11:21.917Z,20.23
2019-01-26T09:13:51.248Z,20.02
2019-01-26T09:16:20.831Z,21.02
2019-01-26T09:18:50.192Z,20.97
2019-01-26T09:21:19.557Z,22.32
2019-01-26T09:23:48.922Z,22.75
2019-01-26T09:26:18.301Z,20.40
2019-01-26T09:28:47.645Z,20.97
2019-01-26T09:31:17.029Z,17.52
2019-01-26T09:33:46.724Z,19.12
2019-01-26T09:36:16.074Z,20.05
2019-01-26T09:38:45.488Z,19.82
2019-01-26T09:41:14.872Z,19.75
2019-01-26T09:43:44.236Z,17.82
2019-01-26T09:46:13.641Z,18.15
2019-01-26T09:48:46.316Z,17.62
2019-01-26T09:51:14.064Z,18.45
2019-01-26T09:53:44.117Z,16.45
2019-01-26T09:56:13.513Z,15.70
2019-01-26T09:58:42.906Z,17.77
2019-01-26T10:01:12.917Z,16.27
2019-01-26T10:03:42.259Z,16.48
2019-01-26T10:06:11.720Z,16.95
2019-01-26T10:08:41.064Z,15.15
2019-01-26T10:11:10.446Z,16.82
2019-01-26T10:13:39.837Z,15.32
2019-01-26T10:16:09.181Z,14.53
2019-01-26T10:18:38.632Z,13.48
2019-01-26T10:21:07.963Z,14.15
2019-01-26T10:23:37.332Z,14.07
2019-01-26T10:26:06.729Z,14.80
2019-01-26T10:28:36.171Z,16.42
2019-01-26T10:31:05.653Z,12.35
2019-01-26T10:33:35.008Z,12.53
2019-01-26T10:36:23.320Z,11.68
2019-01-26T10:38:55.122Z,12.15
2019-01-26T10:41:41.893Z,10.38
2019-01-26T10:44:14.610Z,13.83
2019-01-26T10:46:44.006Z,11.83
2019-01-26T10:49:13.401Z,12.40
2019-01-26T10:51:42.746Z,12.88
2019-01-26T10:54:12.102Z,13.65
2019-01-26T10:56:41.452Z,11.68
2019-01-26T10:59:10.820Z,12.58
2019-01-26T11:01:40.322Z,15.28
2019-01-26T11:04:09.723Z,12.58
2019-01-26T11:06:39.076Z,13.28
2019-01-26T11:09:11.127Z,12.20
2019-01-26T11:11:40.543Z,13.32
2019-01-26T11:14:09.909Z,12.98
2019-01-26T11:16:39.264Z,11.30
2019-01-26T11:19:08.647Z,12.78
2019-01-26T11:21:38.034Z,13.45
2019-01-26T11:24:07.418Z,11.60
2019-01-26T11:26:36.768Z,11.05
2019-01-26T11:29:06.161Z,12.28
2019-01-26T11:31:35.921Z,11.75
2019-01-26T11:34:05.413Z,12.50
2019-01-26T11:36:34.778Z,12.25
2019-01-26T11:39:06.993Z,12.98
2019-01-26T11:41:36.370Z,12.23
2019-01-26T11:44:05.790Z,10.63
2019-01-26T11:46:56.964Z,10.38
2019-01-26T11:49:26.377Z,11.70
2019-01-26T11:52:12.715Z,9.40
2019-01-26T11:54:58.543Z,9.55
2019-01-26T11:57:33.389Z,10.08
2019-01-26T12:00:29.059Z,10.08
2019-01-26T12:03:15.537Z,9.30
2019-01-26T12:06:00.981Z,9.43
2019-01-26T12:08:30.376Z,11.25
2019-01-26T12:10:59.809Z,12.50
2019-01-26T12:13:29.207Z,10.55
2019-01-26T12:15:58.596Z,14.15
2019-01-26T12:18:28.057Z,9.18
2019-01-26T12:20:57.467Z,10.18
2019-01-26T12:23:26.911Z,9.25
2019-01-26T12:25:56.281Z,9.40
2019-01-26T12:28:25.713Z,8.85
2019-01-26T12:30:55.088Z,7.90
2019-01-26T12:33:24.450Z,7.58
2019-01-26T12:35:53.818Z,7.53
2019-01-26T12:38:23.158Z,8.68
2019-01-26T12:40:52.550Z,8.08
2019-01-26T12:43:21.905Z,8.05
2019-01-26T12:45:51.334Z,8.68
2019-01-26T12:48:20.855Z,9.80
2019-01-26T12:50:50.258Z,10.13
2019-01-26T12:53:19.612Z,10.58
2019-01-26T12:55:49.098Z,9.65
2019-01-26T12:58:18.548Z,9.55
2019-01-26T13:00:47.939Z,7.80
2019-01-26T13:03:17.312Z,8.55
2019-01-26T13:05:46.686Z,7.72
2019-01-26T13:08:16.034Z,7.72
2019-01-26T13:10:48.177Z,7.25
2019-01-26T13:13:17.522Z,7.00
2019-01-26T13:15:46.878Z,5.83
2019-01-26T13:18:16.250Z,5.58
2019-01-26T13:20:45.641Z,5.40
2019-01-26T13:23:15.001Z,6.00
2019-01-26T13:25:44.529Z,6.20
2019-01-26T13:28:13.881Z,5.60
2019-01-26T13:30:43.283Z,5.62
2019-01-26T13:33:12.659Z,5.58
2019-01-26T13:35:42.064Z,6.55
2019-01-26T13:38:11.458Z,6.22
2019-01-26T13:40:40.808Z,5.28
2019-01-26T13:43:10.189Z,5.47
2019-01-26T13:45:39.569Z,6.22
2019-01-26T13:48:08.953Z,5.50
2019-01-26T13:50:38.325Z,6.45
2019-01-26T13:53:07.729Z,4.95
2019-01-26T13:55:37.073Z,4.75
2019-01-26T13:58:06.620Z,6.45
2019-01-26T14:00:36.300Z,4.97
2019-01-26T14:03:06.023Z,5.50
2019-01-26T14:05:35.504Z,4.17
2019-01-26T14:08:05.379Z,6.97
2019-01-26T14:10:34.719Z,8.03
2019-01-26T14:13:04.084Z,5.87
2019-01-26T14:15:33.461Z,7.62
2019-01-26T14:18:02.849Z,9.03
2019-01-26T14:20:32.217Z,7.12
2019-01-26T14:23:01.557Z,9.05
2019-01-26T14:25:30.961Z,8.55
2019-01-26T14:28:00.302Z,7.30
2019-01-26T14:30:32.604Z,6.72
2019-01-26T14:33:02.121Z,6.55
2019-01-26T14:35:31.524Z,6.70
2019-01-26T14:38:00.968Z,5.50
2019-01-26T14:40:30.384Z,5.33
2019-01-26T14:42:59.729Z,5.97
2019-01-26T14:45:29.242Z,5.42
2019-01-26T14:47:58.668Z,5.25
2019-01-26T14:50:28.014Z,5.15
2019-01-26T14:52:57.625Z,5.83
2019-01-26T14:55:27.019Z,5.85
2019-01-26T14:57:56.364Z,6.03
2019-01-26T15:00:28.077Z,6.28
2019-01-26T15:02:57.482Z,5.35
2019-01-26T15:05:27.118Z,6.17
2019-01-26T15:07:56.845Z,6.90
2019-01-26T15:10:26.193Z,7.67
2019-01-26T15:12:55.578Z,6.78
2019-01-26T15:15:25.265Z,7.10
2019-01-26T15:17:54.592Z,6.10
2019-01-26T15:20:32.113Z,6.75
2019-01-26T15:23:01.461Z,6.33
2019-01-26T15:25:30.822Z,5.70
2019-01-26T15:28:00.192Z,6.70
2019-01-26T15:30:31.822Z,6.53
2019-01-26T15:33:01.191Z,7.55
2019-01-26T15:35:30.611Z,5.15
2019-01-26T15:37:59.942Z,4.62
2019-01-26T15:40:29.295Z,7.42
2019-01-26T15:42:58.670Z,6.55
2019-01-26T15:45:30.808Z,6.30
2019-01-26T15:48:00.202Z,6.30
2019-01-26T15:50:29.554Z,6.78
2019-01-26T15:52:58.902Z,6.25
2019-01-26T15:55:28.276Z,7.22
2019-01-26T15:57:57.648Z,7.10
2019-01-26T16:00:31.826Z,8.43
2019-01-26T16:03:01.227Z,7.58
2019-01-26T16:05:30.588Z,6.17
2019-01-26T16:08:00.051Z,7.65
2019-01-26T16:10:29.420Z,7.97
2019-01-26T16:12:58.796Z,7.92
2019-01-26T16:15:32.433Z,8.33
2019-01-26T16:18:02.030Z,7.28
2019-01-26T16:20:31.377Z,7.35
2019-01-26T16:23:00.751Z,7.80
2019-01-26T16:25:30.109Z,8.20
2019-01-26T16:27:59.482Z,7.92
2019-01-26T16:30:30.733Z,8.63
2019-01-26T16:33:00.249Z,7.75
2019-01-26T16:35:29.907Z,8.48
2019-01-26T16:37:59.284Z,8.55
2019-01-26T16:40:33.391Z,9.30
2019-01-26T16:43:02.757Z,8.73
2019-01-26T16:45:34.051Z,9.93
2019-01-26T16:48:03.841Z,9.05
2019-01-26T16:50:33.277Z,8.48
2019-01-26T16:53:02.652Z,8.38
2019-01-26T16:55:31.983Z,10.55
2019-01-26T16:58:01.341Z,9.90
2019-01-26T17:00:41.645Z,10.00
2019-01-26T17:03:11.178Z,8.58
2019-01-26T17:05:40.633Z,10.80
2019-01-26T17:08:10.509Z,10.38
2019-01-26T17:10:40.545Z,11.18
2019-01-26T17:13:12.462Z,11.57
2019-01-26T17:15:41.884Z,10.90
2019-01-26T17:18:13.913Z,10.82
2019-01-26T17:20:43.121Z,12.73
2019-01-26T17:23:12.484Z,10.68
2019-01-26T17:25:41.865Z,12.75
2019-01-26T17:28:11.238Z,13.13
2019-01-26T17:30:41.784Z,12.05
2019-01-26T17:33:11.204Z,11.95
2019-01-26T17:35:40.556Z,12.60
2019-01-26T17:38:10.025Z,11.60
2019-01-26T17:40:39.456Z,12.33
2019-01-26T17:43:08.808Z,13.35
2019-01-26T17:45:38.176Z,15.20
2019-01-26T17:48:08.437Z,15.90
2019-01-26T17:50:42.145Z,16.67
2019-01-26T17:53:08.855Z,16.23
2019-01-26T17:55:38.239Z,16.02
2019-01-26T17:58:07.585Z,18.00
2019-01-26T18:00:50.517Z,17.42
2019-01-26T18:03:19.937Z,17.85
2019-01-26T18:05:49.297Z,20.82
2019-01-26T18:08:18.689Z,19.65
2019-01-26T18:10:48.053Z,19.12
2019-01-26T18:13:17.441Z,21.27
2019-01-26T18:15:46.784Z,22.98
2019-01-26T18:18:16.211Z,24.05
2019-01-26T18:20:49.390Z,23.87
2019-01-26T18:23:19.353Z,19.40
2019-01-26T18:25:48.895Z,18.55
2019-01-26T18:28:18.264Z,19.95
2019-01-26T18:30:47.629Z,19.00
2019-01-26T18:33:16.993Z,18.65
2019-01-26T18:35:46.337Z,17.40
2019-01-26T18:38:15.803Z,18.73
2019-01-26T18:40:45.177Z,17.25
2019-01-26T18:43:14.572Z,16.70
2019-01-26T18:45:43.938Z,16.30
2019-01-26T18:48:13.381Z,15.90
2019-01-26T18:50:44.417Z,13.98
2019-01-26T18:53:13.797Z,14.78
2019-01-26T18:55:43.142Z,16.60
2019-01-26T18:58:12.509Z,16.30
2019-01-26T19:00:44.768Z,16.00
2019-01-26T19:03:58.798Z,15.70
2019-01-26T19:06:28.137Z,16.52
2019-01-26T19:08:57.509Z,15.95
2019-01-26T19:11:26.981Z,15.60
2019-01-26T19:13:56.357Z,14.50
2019-01-26T19:16:25.721Z,16.70
2019-01-26T19:18:55.140Z,16.37
2019-01-26T19:21:24.526Z,15.98
2019-01-26T19:23:53.956Z,14.43
2019-01-26T19:26:23.308Z,13.22
2019-01-26T19:28:52.721Z,14.93
2019-01-26T19:31:22.065Z,14.70
2019-01-26T19:33:51.453Z,14.85
2019-01-26T19:36:20.793Z,14.85
2019-01-26T19:38:50.180Z,13.90
2019-01-26T19:41:19.512Z,12.58
2019-01-26T19:43:48.899Z,13.58
2019-01-26T19:46:18.260Z,13.35
2019-01-26T19:48:47.657Z,14.28
2019-01-26T19:51:17.008Z,15.48
2019-01-26T19:53:46.512Z,14.28
2019-01-26T19:56:15.897Z,12.68
2019-01-26T19:58:45.623Z,15.13
2019-01-26T20:01:14.971Z,13.88
2019-01-26T20:03:44.357Z,13.93
2019-01-26T20:06:13.733Z,13.65
2019-01-26T20:08:43.084Z,13.72
2019-01-26T20:11:12.449Z,14.35
2019-01-26T20:13:41.817Z,16.85
2019-01-26T20:16:11.185Z,14.55
2019-01-26T20:18:40.546Z,13.40
2019-01-26T20:21:09.928Z,14.10
2019-01-26T20:23:39.293Z,15.83
2019-01-26T20:26:08.669Z,15.35
2019-01-26T20:28:38.034Z,12.68
2019-01-26T20:31:07.398Z,15.95
2019-01-26T20:33:36.768Z,12.65
2019-01-26T20:36:06.141Z,14.03
2019-01-26T20:38:35.549Z,13.90
2019-01-26T20:41:04.974Z,12.98
2019-01-26T20:43:34.308Z,12.90
2019-01-26T20:46:03.681Z,12.73
2019-01-26T20:48:33.014Z,12.80
2019-01-26T20:51:02.378Z,13.05
2019-01-26T20:53:31.725Z,13.20
2019-01-26T20:56:01.104Z,12.45
2019-01-26T20:58:30.480Z,12.73
2019-01-26T21:00:59.875Z,13.30
2019-01-26T21:03:29.240Z,12.55
2019-01-26T21:05:58.614Z,12.20
2019-01-26T21:08:27.965Z,12.95
2019-01-26T21:10:57.342Z,12.10
2019-01-26T21:13:26.697Z,11.38
2019-01-26T21:15:56.068Z,11.83
2019-01-26T21:18:25.424Z,12.82
2019-01-26T21:20:54.794Z,11.25
2019-01-26T21:23:24.150Z,12.20
2019-01-26T21:25:53.534Z,13.15
2019-01-26T21:28:23.207Z,12.98
2019-01-26T21:30:52.586Z,13.95
2019-01-26T21:33:21.926Z,12.33
2019-01-26T21:35:51.312Z,12.60
2019-01-26T21:38:20.682Z,14.50
2019-01-26T21:40:50.060Z,12.28
2019-01-26T21:43:19.461Z,14.10
2019-01-26T21:45:48.857Z,12.80
2019-01-26T21:48:18.244Z,15.23
2019-01-26T21:50:47.664Z,14.68
2019-01-26T21:53:17.021Z,15.70
2019-01-26T21:55:46.410Z,14.03
2019-01-26T21:58:15.767Z,13.80
2019-01-26T22:00:45.127Z,16.67
2019-01-26T22:03:14.494Z,15.28
2019-01-26T22:05:44.001Z,15.95
2019-01-26T22:08:13.380Z,15.32
2019-01-26T22:10:42.733Z,15.55
2019-01-26T22:13:12.105Z,15.23
2019-01-26T22:15:41.464Z,15.50
2019-01-26T22:18:10.846Z,20.27
2019-01-26T22:20:40.233Z,16.35
2019-01-26T22:23:09.582Z,16.60
2019-01-26T22:25:38.992Z,16.70
2019-01-26T22:28:08.350Z,17.00
2019-01-26T22:30:37.737Z,16.50
2019-01-26T22:33:07.104Z,18.15
2019-01-26T22:35:36.479Z,16.40
2019-01-26T22:38:05.888Z,17.87
2019-01-26T22:40:36.642Z,17.05
2019-01-26T22:43:06.344Z,18.95
2019-01-26T22:45:36.061Z,19.85
2019-01-26T22:48:05.469Z,17.85
2019-01-26T22:50:35.066Z,17.60
2019-01-26T22:53:04.941Z,19.95
2019-01-26T22:55:34.338Z,17.48
2019-01-26T22:58:03.784Z,17.57
2019-01-26T23:01:09.801Z,19.92
2019-01-26T23:03:57.625Z,20.15
2019-01-26T23:06:45.619Z,18.92
2019-01-26T23:09:21.333Z,19.10
2019-01-26T23:12:03.767Z,20.00
2019-01-26T23:15:04.133Z,21.85
2019-01-26T23:17:57.945Z,19.17
2019-01-26T23:20:58.357Z,21.23
2019-01-26T23:24:05.143Z,18.35
2019-01-26T23:27:05.733Z,21.60
2019-01-26T23:30:12.510Z,21.97
2019-01-26T23:32:41.860Z,19.02
2019-01-26T23:35:11.344Z,21.37
2019-01-26T23:37:40.737Z,20.25
2019-01-26T23:40:10.550Z,21.48
2019-01-26T23:42:39.929Z,21.23
2019-01-26T23:45:09.439Z,22.07
2019-01-26T23:47:39.028Z,23.00
2019-01-26T23:50:08.555Z,22.52
2019-01-26T23:52:37.977Z,22.73
2019-01-26T23:55:07.517Z,21.00
2019-01-26T23:57:36.878Z,25.37
